createdAt,value
2022-10-18T00:01:48.136Z,19.10
2022-10-18T00:04:16.479Z,20.08
2022-10-18T00:06:44.665Z,23.63
2022-10-18T00:09:13.080Z,18.73
2022-10-18T00:11:41.657Z,20.67
2022-10-18T00:14:09.873Z,20.73
2022-10-18T00:16:38.355Z,20.13
2022-10-18T00:19:06.924Z,19.25
2022-10-18T00:21:35.159Z,19.98
2022-10-18T00:24:03.708Z,21.35
2022-10-18T00:26:32.633Z,21.48
2022-10-18T00:29:03.925Z,20.83
2022-10-18T00:31:41.389Z,19.17
2022-10-18T00:34:14.947Z,21.27
2022-10-18T00:36:44.970Z,20.77
2022-10-18T00:39:17.952Z,20.75
2022-10-18T00:41:46.900Z,20.38
2022-10-18T00:44:14.894Z,22.13
2022-10-18T00:46:48.166Z,20.45
2022-10-18T00:49:34.479Z,19.98
2022-10-18T00:52:16.156Z,19.80
2022-10-18T00:54:46.722Z,22.70
2022-10-18T00:57:15.927Z,21.98
2022-10-18T00:59:45.283Z,22.27
2022-10-18T01:02:14.307Z,21.30
2022-10-18T01:04:42.520Z,22.10
2022-10-18T01:07:15.731Z,20.25
2022-10-18T01:10:17.438Z,21.40
2022-10-18T01:13:04.145Z,22.17
2022-10-18T01:15:50.726Z,21.58
2022-10-18T01:18:49.110Z,21.48
2022-10-18T01:21:54.320Z,22.10
2022-10-18T01:24:39.218Z,21.00
2022-10-18T01:27:32.044Z,20.52
2022-10-18T01:30:39.645Z,22.80
2022-10-18T01:33:17.168Z,22.10
2022-10-18T01:35:50.972Z,22.50
2022-10-18T01:38:21.997Z,23.30
2022-10-18T01:40:52.694Z,22.42
2022-10-18T01:43:23.739Z,24.25
2022-10-18T01:45:55.143Z,21.58
2022-10-18T01:48:23.979Z,19.05
2022-10-18T01:50:53.609Z,8.15
2022-10-18T01:53:28.435Z,4.85
2022-10-18T01:56:09.927Z,4.45
2022-10-18T01:58:49.107Z,4.18
2022-10-18T02:02:02.087Z,3.38
2022-10-18T02:07:43.062Z,4.35
2022-10-18T02:12:47.060Z,4.90
2022-10-18T02:15:21.522Z,3.22
2022-10-18T02:17:50.103Z,3.45
2022-10-18T02:20:22.699Z,3.50
2022-10-18T02:22:53.921Z,4.00
2022-10-18T02:25:28.135Z,3.53
2022-10-18T02:27:57.919Z,3.67
2022-10-18T02:30:56.413Z,4.13
2022-10-18T02:33:47.359Z,3.85
2022-10-18T02:36:26.493Z,3.33
2022-10-18T02:39:01.031Z,4.10
2022-10-18T02:41:31.167Z,4.50
2022-10-18T02:43:59.513Z,3.75
2022-10-18T02:49:00.741Z,3.38
2022-10-18T02:51:28.812Z,4.28
2022-10-18T02:53:56.951Z,5.03
2022-10-18T02:56:25.251Z,3.75
2022-10-18T02:58:53.451Z,3.53
2022-10-18T03:01:21.618Z,4.45
2022-10-18T03:03:50.251Z,3.70
2022-10-18T03:06:18.572Z,3.78
2022-10-18T03:08:46.875Z,4.40
2022-10-18T03:11:15.150Z,4.15
2022-10-18T03:13:43.178Z,3.85
2022-10-18T03:16:12.207Z,4.10
2022-10-18T03:18:40.463Z,4.32
2022-10-18T03:21:09.358Z,4.18
2022-10-18T03:23:37.504Z,3.95
2022-10-18T03:26:05.703Z,4.32
2022-10-18T03:28:33.870Z,4.57
2022-10-18T03:31:02.959Z,4.85
2022-10-18T03:33:32.608Z,4.95
2022-10-18T03:36:00.966Z,4.30
2022-10-18T03:38:29.216Z,4.85
2022-10-18T03:40:57.241Z,4.85
2022-10-18T03:43:25.603Z,5.03
2022-10-18T03:45:54.083Z,4.05
2022-10-18T03:48:22.430Z,5.38
2022-10-18T03:50:50.787Z,5.00
2022-10-18T03:53:18.966Z,5.25
2022-10-18T03:55:55.055Z,4.20
2022-10-18T03:58:23.552Z,5.80
2022-10-18T04:00:55.862Z,4.28
2022-10-18T04:03:24.369Z,5.75
2022-10-18T04:05:52.670Z,6.03
2022-10-18T04:08:20.838Z,5.05
2022-10-18T04:10:49.627Z,5.57
2022-10-18T04:13:17.831Z,4.75
2022-10-18T04:15:46.047Z,5.70
2022-10-18T04:18:14.345Z,5.35
2022-10-18T04:20:42.451Z,5.72
2022-10-18T04:23:10.555Z,5.10
2022-10-18T04:25:38.820Z,6.13
2022-10-18T04:28:06.986Z,5.90
2022-10-18T04:30:35.437Z,5.32
2022-10-18T04:33:03.578Z,5.72
2022-10-18T04:35:31.706Z,6.78
2022-10-18T04:37:59.884Z,6.55
2022-10-18T04:40:28.151Z,6.00
2022-10-18T04:42:56.954Z,6.03
2022-10-18T04:45:25.084Z,5.65
2022-10-18T04:47:53.207Z,5.57
2022-10-18T04:50:21.491Z,7.05
2022-10-18T04:55:18.554Z,6.25
2022-10-18T04:57:46.806Z,7.07
2022-10-18T05:00:15.542Z,7.43
2022-10-18T05:02:43.751Z,7.15
2022-10-18T05:05:14.058Z,7.95
2022-10-18T05:07:42.657Z,7.57
2022-10-18T05:10:11.072Z,8.45
2022-10-18T05:12:39.263Z,7.32
2022-10-18T05:15:07.766Z,6.95
2022-10-18T05:17:36.808Z,6.97
2022-10-18T05:20:05.440Z,7.72
2022-10-18T05:22:33.869Z,7.43
2022-10-18T05:25:02.118Z,7.47
2022-10-18T05:27:30.470Z,7.68
2022-10-18T05:30:01.265Z,7.60
2022-10-18T05:32:33.167Z,5.55
2022-10-18T05:35:01.547Z,6.57
2022-10-18T05:37:29.794Z,9.02
2022-10-18T05:39:58.015Z,7.70
2022-10-18T05:42:26.439Z,7.07
2022-10-18T05:44:54.460Z,6.80
2022-10-18T05:47:22.747Z,8.45
2022-10-18T05:49:50.770Z,8.00
2022-10-18T05:52:18.858Z,8.32
2022-10-18T05:54:46.967Z,9.60
2022-10-18T05:57:15.233Z,8.35
2022-10-18T05:59:44.268Z,8.65
2022-10-18T06:02:13.353Z,8.35
2022-10-18T06:04:41.549Z,8.35
2022-10-18T06:07:13.081Z,7.63
2022-10-18T06:09:41.212Z,10.50
2022-10-18T06:12:09.229Z,11.02
2022-10-18T06:14:38.347Z,9.05
2022-10-18T06:17:06.536Z,9.00
2022-10-18T06:19:34.690Z,8.77
2022-10-18T06:22:02.923Z,8.02
2022-10-18T06:24:31.061Z,8.98
2022-10-18T06:26:59.147Z,10.48
2022-10-18T06:29:27.450Z,9.27
2022-10-18T06:31:55.673Z,9.13
2022-10-18T06:34:23.783Z,9.23
2022-10-18T06:36:56.330Z,10.52
2022-10-18T06:39:26.779Z,9.95
2022-10-18T06:41:55.255Z,9.40
2022-10-18T06:44:25.192Z,9.25
2022-10-18T06:46:53.589Z,9.02
2022-10-18T06:49:21.700Z,9.32
2022-10-18T06:51:49.864Z,9.77
2022-10-18T06:54:18.989Z,10.25
2022-10-18T06:56:47.557Z,11.02
2022-10-18T06:59:16.032Z,10.35
2022-10-18T07:01:44.294Z,10.15
2022-10-18T07:04:12.650Z,9.73
2022-10-18T07:06:40.997Z,11.32
2022-10-18T07:09:09.586Z,11.00
2022-10-18T07:11:37.957Z,10.90
2022-10-18T07:14:06.420Z,10.15
2022-10-18T07:16:34.829Z,9.73
2022-10-18T07:19:03.310Z,10.55
2022-10-18T07:21:31.607Z,11.13
2022-10-18T07:23:59.643Z,9.15
2022-10-18T07:26:33.602Z,10.48
2022-10-18T07:29:08.115Z,10.52
2022-10-18T07:31:37.056Z,10.52
2022-10-18T07:34:06.283Z,11.30
2022-10-18T07:36:34.729Z,10.77
2022-10-18T07:39:02.892Z,10.52
2022-10-18T07:41:31.037Z,9.80
2022-10-18T07:43:59.088Z,10.32
2022-10-18T07:46:27.343Z,11.05
2022-10-18T07:48:55.931Z,9.93
2022-10-18T07:51:24.079Z,11.77
2022-10-18T07:53:52.512Z,10.32
2022-10-18T07:56:22.356Z,9.43
2022-10-18T07:58:53.342Z,11.57
2022-10-18T08:01:23.742Z,10.68
2022-10-18T08:03:52.842Z,11.63
2022-10-18T08:06:22.319Z,13.88
2022-10-18T08:08:50.712Z,12.23
2022-10-18T08:11:21.549Z,11.27
2022-10-18T08:13:50.373Z,10.40
2022-10-18T08:16:24.842Z,10.18
2022-10-18T08:18:53.923Z,8.68
2022-10-18T08:21:22.714Z,12.00
2022-10-18T08:23:51.334Z,10.65
2022-10-18T08:26:21.621Z,12.20
2022-10-18T08:28:54.282Z,16.17
2022-10-18T08:31:32.209Z,15.52
2022-10-18T08:34:00.341Z,15.70
2022-10-18T08:36:28.706Z,16.30
2022-10-18T08:38:57.096Z,17.33
2022-10-18T08:41:34.677Z,12.20
2022-10-18T08:44:19.313Z,12.30
2022-10-18T08:46:53.138Z,10.60
2022-10-18T08:49:36.945Z,11.68
2022-10-18T08:52:12.062Z,11.02
2022-10-18T08:55:14.165Z,12.02
2022-10-18T08:57:42.872Z,11.02
2022-10-18T09:00:19.533Z,11.43
2022-10-18T09:03:24.802Z,10.90
2022-10-18T09:06:09.472Z,10.65
2022-10-18T09:08:56.965Z,10.68
2022-10-18T09:11:41.611Z,10.25
2022-10-18T09:14:19.058Z,10.98
2022-10-18T09:17:16.253Z,10.45
2022-10-18T09:22:47.818Z,8.02
2022-10-18T09:25:24.195Z,7.55
2022-10-18T09:28:14.219Z,10.02
2022-10-18T09:31:03.222Z,8.65
2022-10-18T09:33:51.068Z,9.73
2022-10-18T09:36:33.090Z,6.65
2022-10-18T09:41:48.164Z,8.77
2022-10-18T09:44:25.322Z,7.78
2022-10-18T09:47:02.401Z,7.03
2022-10-18T09:49:42.809Z,8.50
2022-10-18T09:52:21.835Z,6.25
2022-10-18T09:54:58.796Z,5.15
2022-10-18T09:57:32.065Z,6.15
2022-10-18T10:00:02.136Z,5.25
2022-10-18T10:02:33.297Z,4.82
2022-10-18T10:05:01.948Z,5.07
2022-10-18T10:07:36.392Z,5.55
2022-10-18T10:10:17.298Z,5.38
2022-10-18T10:12:46.346Z,4.45
2022-10-18T10:15:28.191Z,5.10
2022-10-18T10:18:25.381Z,5.03
2022-10-18T10:20:59.641Z,4.70
2022-10-18T10:23:36.866Z,5.45
2022-10-18T10:26:07.988Z,4.88
2022-10-18T10:28:43.160Z,5.50
2022-10-18T10:31:20.674Z,4.32
2022-10-18T10:33:58.150Z,5.40
2022-10-18T10:36:26.894Z,4.80
2022-10-18T10:39:12.809Z,3.80
2022-10-18T10:41:42.440Z,4.70
2022-10-18T10:44:19.914Z,4.63
2022-10-18T10:46:52.481Z,4.88
2022-10-18T10:49:41.047Z,5.57
2022-10-18T10:52:27.765Z,4.70
2022-10-18T10:55:22.990Z,4.75
2022-10-18T10:57:52.611Z,4.07
2022-10-18T11:00:44.537Z,3.33
2022-10-18T11:03:31.212Z,4.38
2022-10-18T11:05:59.920Z,4.10
2022-10-18T11:08:38.587Z,4.63
2022-10-18T11:11:44.695Z,4.50
2022-10-18T11:14:30.135Z,3.78
2022-10-18T11:17:23.321Z,4.53
2022-10-18T11:20:00.842Z,4.93
2022-10-18T11:22:35.132Z,4.20
2022-10-18T11:25:06.094Z,3.53
2022-10-18T11:27:57.010Z,3.70
2022-10-18T11:31:05.385Z,3.58
2022-10-18T11:34:09.298Z,3.97
2022-10-18T11:37:23.018Z,3.65
2022-10-18T11:39:51.409Z,3.67
2022-10-18T11:42:25.411Z,3.90
2022-10-18T11:45:31.927Z,3.67
2022-10-18T11:48:35.429Z,3.83
2022-10-18T11:51:09.491Z,4.47
2022-10-18T11:53:45.280Z,3.45
2022-10-18T11:56:52.210Z,3.65
2022-10-18T11:59:28.509Z,3.35
2022-10-18T12:01:59.925Z,4.05
2022-10-18T12:04:45.035Z,4.40
2022-10-18T12:07:30.239Z,4.68
2022-10-18T12:10:02.144Z,4.10
2022-10-18T12:12:42.022Z,3.75
2022-10-18T12:15:45.646Z,3.70
2022-10-18T12:18:24.403Z,3.85
2022-10-18T12:20:56.325Z,4.28
2022-10-18T12:23:31.076Z,4.55
2022-10-18T12:26:07.978Z,4.15
2022-10-18T12:28:37.162Z,4.55
2022-10-18T12:31:24.030Z,4.10
2022-10-18T12:33:59.073Z,3.83
2022-10-18T12:37:05.287Z,4.45
2022-10-18T12:40:09.122Z,7.75
2022-10-18T12:42:49.279Z,7.93
2022-10-18T12:45:25.965Z,7.97
2022-10-18T12:47:59.377Z,7.80
2022-10-18T12:50:42.600Z,7.22
2022-10-18T12:53:10.911Z,8.00
2022-10-18T12:58:14.924Z,6.72
2022-10-18T13:00:43.207Z,6.05
2022-10-18T13:03:11.494Z,6.40
2022-10-18T13:05:53.508Z,6.47
2022-10-18T13:08:28.857Z,6.22
2022-10-18T13:11:09.385Z,6.45
2022-10-18T13:13:43.702Z,5.63
2022-10-18T13:16:21.280Z,6.00
2022-10-18T13:19:09.869Z,6.95
2022-10-18T13:21:56.586Z,7.57
2022-10-18T13:24:30.371Z,5.22
2022-10-18T13:27:36.605Z,6.30
2022-10-18T13:30:30.700Z,8.35
2022-10-18T13:33:37.670Z,7.97
2022-10-18T13:36:22.652Z,4.78
2022-10-18T13:38:54.851Z,5.13
2022-10-18T13:41:32.767Z,6.30
2022-10-18T13:44:35.659Z,5.13
2022-10-18T13:47:03.932Z,5.95
2022-10-18T13:49:41.187Z,5.95
2022-10-18T13:52:17.357Z,6.60
2022-10-18T13:54:57.412Z,5.43
2022-10-18T13:57:46.420Z,4.57
2022-10-18T14:00:49.082Z,5.60
2022-10-18T14:03:55.011Z,5.40
2022-10-18T14:06:24.157Z,5.35
2022-10-18T14:09:14.121Z,4.15
2022-10-18T14:12:03.698Z,5.15
2022-10-18T14:14:33.944Z,4.78
2022-10-18T14:17:30.139Z,4.82
2022-10-18T14:20:28.590Z,4.88
2022-10-18T14:23:03.925Z,4.50
2022-10-18T14:25:35.250Z,4.65
2022-10-18T14:28:14.369Z,3.40
2022-10-18T14:31:06.225Z,4.20
2022-10-18T14:33:37.937Z,8.18
2022-10-18T14:36:15.817Z,6.55
2022-10-18T14:39:00.006Z,5.55
2022-10-18T14:41:30.687Z,3.88
2022-10-18T14:44:20.426Z,10.35
2022-10-18T14:46:52.522Z,7.20
2022-10-18T14:49:21.918Z,5.15
2022-10-18T14:51:53.423Z,5.80
2022-10-18T14:54:34.005Z,8.45
2022-10-18T14:57:05.212Z,7.32
2022-10-18T14:59:46.831Z,3.80
2022-10-18T15:02:24.616Z,4.07
2022-10-18T15:05:23.808Z,4.82
2022-10-18T15:07:53.800Z,6.55
2022-10-18T15:10:29.383Z,5.00
2022-10-18T15:13:11.881Z,19.05
2022-10-18T15:15:40.661Z,14.63
2022-10-18T15:18:16.264Z,16.92
2022-10-18T15:20:44.693Z,15.63
2022-10-18T15:23:30.904Z,9.40
2022-10-18T15:26:09.173Z,7.85
2022-10-18T15:28:44.215Z,5.68
2022-10-18T15:31:29.200Z,6.55
2022-10-18T15:34:17.734Z,5.53
2022-10-18T15:36:46.840Z,6.35
2022-10-18T15:39:30.199Z,6.28
2022-10-18T15:42:02.752Z,6.65
2022-10-18T15:44:47.173Z,6.63
2022-10-18T15:47:17.597Z,5.35
2022-10-18T15:49:45.822Z,4.65
2022-10-18T15:52:37.736Z,4.90
2022-10-18T15:55:32.453Z,6.20
2022-10-18T15:58:11.858Z,4.25
2022-10-18T16:00:40.143Z,5.13
2022-10-18T16:03:11.190Z,5.55
2022-10-18T16:05:40.047Z,6.05
2022-10-18T16:08:17.884Z,5.78
2022-10-18T16:10:46.156Z,9.20
2022-10-18T16:13:14.342Z,6.40
2022-10-18T16:15:42.895Z,5.47
2022-10-18T16:18:20.206Z,4.28
2022-10-18T16:20:49.225Z,8.73
2022-10-18T16:23:23.340Z,5.03
2022-10-18T16:25:52.432Z,5.22
2022-10-18T16:28:23.398Z,6.68
2022-10-18T16:31:02.274Z,5.70
2022-10-18T16:33:31.125Z,4.90
2022-10-18T16:35:59.949Z,5.97
2022-10-18T16:38:35.187Z,6.75
2022-10-18T16:41:06.158Z,7.50
2022-10-18T16:43:35.857Z,5.70
2022-10-18T16:46:08.145Z,7.45
2022-10-18T16:48:36.499Z,8.95
2022-10-18T16:51:04.703Z,10.35
2022-10-18T16:53:33.102Z,7.60
2022-10-18T16:56:03.682Z,6.15
2022-10-18T16:58:33.779Z,4.88
2022-10-18T17:01:04.138Z,6.13
2022-10-18T17:03:35.071Z,6.00
2022-10-18T17:06:03.490Z,6.80
2022-10-18T17:08:31.811Z,6.38
2022-10-18T17:11:00.659Z,5.63
2022-10-18T17:13:28.939Z,5.95
2022-10-18T17:15:57.106Z,6.32
2022-10-18T17:18:26.558Z,5.30
2022-10-18T17:20:54.972Z,6.57
2022-10-18T17:23:23.255Z,5.85
2022-10-18T17:26:05.387Z,6.90
2022-10-18T17:28:37.183Z,8.18
2022-10-18T17:31:07.609Z,7.03
2022-10-18T17:33:36.152Z,7.25
2022-10-18T17:36:04.549Z,9.18
2022-10-18T17:38:32.979Z,13.40
2022-10-18T17:41:05.830Z,9.00
2022-10-18T17:43:34.100Z,9.18
2022-10-18T17:46:02.160Z,9.75
2022-10-18T17:48:30.601Z,6.97
2022-10-18T17:50:58.986Z,8.32
2022-10-18T17:53:27.148Z,9.50
2022-10-18T17:56:02.440Z,8.38
2022-10-18T17:58:32.280Z,6.13
2022-10-18T18:01:12.104Z,6.38
2022-10-18T18:03:40.831Z,6.97
2022-10-18T18:06:19.334Z,6.90
2022-10-18T18:08:48.076Z,5.43
2022-10-18T18:11:17.463Z,6.65
2022-10-18T18:13:46.304Z,5.20
2022-10-18T18:16:16.571Z,5.85
2022-10-18T18:18:45.615Z,6.20
2022-10-18T18:21:14.318Z,6.75
2022-10-18T18:23:42.853Z,7.80
2022-10-18T18:26:11.007Z,9.65
2022-10-18T18:28:39.458Z,8.10
2022-10-18T18:31:09.954Z,8.48
2022-10-18T18:33:39.066Z,6.57
2022-10-18T18:36:07.793Z,7.68
2022-10-18T18:38:38.405Z,7.43
2022-10-18T18:41:12.913Z,6.40
2022-10-18T18:43:44.485Z,9.07
2022-10-18T18:46:13.729Z,10.40
2022-10-18T18:48:42.425Z,8.48
2022-10-18T18:51:14.779Z,7.70
2022-10-18T18:53:44.229Z,11.82
2022-10-18T18:56:15.601Z,11.32
2022-10-18T18:58:45.568Z,11.73
2022-10-18T19:01:19.794Z,14.98
2022-10-18T19:03:50.294Z,13.95
2022-10-18T19:06:36.539Z,9.63
2022-10-18T19:09:08.502Z,10.48
2022-10-18T19:11:39.233Z,11.25
2022-10-18T19:14:08.980Z,11.30
2022-10-18T19:16:38.124Z,8.80
2022-10-18T19:19:13.599Z,9.70
2022-10-18T19:21:50.224Z,10.88
2022-10-18T19:24:19.639Z,10.30
2022-10-18T19:26:51.851Z,11.88
2022-10-18T19:29:30.651Z,14.10
2022-10-18T19:32:01.088Z,22.52
2022-10-18T19:34:30.884Z,33.13
2022-10-18T19:36:59.332Z,32.25
2022-10-18T19:39:33.387Z,29.45
2022-10-18T19:42:03.458Z,30.65
2022-10-18T19:44:34.396Z,23.40
2022-10-18T19:47:03.224Z,24.00
2022-10-18T19:49:31.449Z,26.25
2022-10-18T19:52:00.003Z,29.15
2022-10-18T19:54:28.304Z,27.60
2022-10-18T19:56:56.666Z,23.42
2022-10-18T19:59:25.071Z,18.27
2022-10-18T20:01:53.403Z,17.90
2022-10-18T20:04:21.678Z,15.32
2022-10-18T20:06:50.174Z,14.57
2022-10-18T20:09:20.620Z,13.07
2022-10-18T20:11:49.136Z,14.90
2022-10-18T20:14:17.376Z,12.88
2022-10-18T20:16:45.635Z,15.30
2022-10-18T20:19:13.855Z,16.48
2022-10-18T20:21:42.130Z,18.02
2022-10-18T20:24:11.932Z,16.17
2022-10-18T20:26:40.321Z,16.52
2022-10-18T20:29:08.709Z,14.65
2022-10-18T20:31:37.340Z,14.68
2022-10-18T20:34:11.899Z,14.80
2022-10-18T20:36:40.702Z,12.98
2022-10-18T20:39:09.412Z,11.80
2022-10-18T20:41:40.323Z,11.35
2022-10-18T20:44:12.664Z,12.77
2022-10-18T20:46:41.641Z,11.68
2022-10-18T20:49:14.994Z,13.63
2022-10-18T20:51:43.569Z,12.10
2022-10-18T20:54:12.511Z,13.15
2022-10-18T20:56:41.026Z,13.80
2022-10-18T20:59:10.161Z,11.85
2022-10-18T21:01:40.819Z,10.68
2022-10-18T21:04:10.481Z,10.88
2022-10-18T21:06:41.880Z,12.43
2022-10-18T21:09:16.569Z,11.43
2022-10-18T21:11:48.236Z,13.55
2022-10-18T21:14:19.156Z,13.40
2022-10-18T21:16:48.771Z,14.07
2022-10-18T21:19:20.343Z,14.45
2022-10-18T21:21:51.093Z,14.32
2022-10-18T21:24:20.887Z,12.02
2022-10-18T21:26:49.594Z,13.85
2022-10-18T21:29:21.961Z,13.10
2022-10-18T21:31:54.936Z,12.88
2022-10-18T21:34:23.496Z,13.93
2022-10-18T21:36:51.823Z,13.10
2022-10-18T21:41:52.643Z,12.20
2022-10-18T21:44:20.985Z,15.02
2022-10-18T21:46:49.195Z,13.73
2022-10-18T21:49:17.995Z,15.13
2022-10-18T21:51:46.322Z,15.02
2022-10-18T21:54:16.905Z,13.48
2022-10-18T21:56:45.681Z,14.15
2022-10-18T21:59:14.652Z,15.32
2022-10-18T22:01:43.264Z,14.15
2022-10-18T22:04:23.439Z,13.55
2022-10-18T22:06:52.575Z,14.32
2022-10-18T22:09:20.927Z,14.20
2022-10-18T22:11:52.456Z,15.18
2022-10-18T22:14:21.035Z,13.70
2022-10-18T22:16:49.626Z,14.43
2022-10-18T22:19:18.043Z,12.82
2022-10-18T22:21:46.304Z,14.13
2022-10-18T22:24:14.829Z,11.63
2022-10-18T22:26:44.590Z,12.70
2022-10-18T22:29:22.620Z,12.50
2022-10-18T22:31:53.535Z,12.43
2022-10-18T22:34:26.897Z,12.85
2022-10-18T22:36:56.265Z,12.38
2022-10-18T22:39:24.830Z,10.98
2022-10-18T22:41:53.097Z,11.70
2022-10-18T22:44:21.207Z,11.93
2022-10-18T22:46:49.722Z,12.52
2022-10-18T22:49:18.012Z,11.18
2022-10-18T22:51:46.360Z,12.93
2022-10-18T22:54:14.637Z,12.98
2022-10-18T22:56:42.814Z,10.52
2022-10-18T22:59:11.190Z,11.13
2022-10-18T23:01:39.445Z,10.90
2022-10-18T23:04:07.636Z,9.77
2022-10-18T23:06:37.246Z,10.43
2022-10-18T23:09:09.052Z,9.57
2022-10-18T23:11:38.167Z,8.52
2022-10-18T23:14:07.285Z,9.68
2022-10-18T23:16:35.854Z,10.48
2022-10-18T23:19:04.358Z,10.70
2022-10-18T23:21:33.923Z,9.07
2022-10-18T23:24:02.167Z,8.75
2022-10-18T23:26:30.306Z,8.02
2022-10-18T23:28:58.528Z,9.18
2022-10-18T23:31:34.225Z,9.98
2022-10-18T23:34:05.323Z,10.18
2022-10-18T23:36:35.153Z,8.93
2022-10-18T23:39:04.439Z,9.27
2022-10-18T23:41:33.014Z,9.55
2022-10-18T23:44:01.068Z,9.55
2022-10-18T23:46:29.421Z,11.02
2022-10-18T23:48:57.569Z,11.55
2022-10-18T23:51:25.826Z,10.68
2022-10-18T23:53:53.849Z,11.38
2022-10-18T23:56:21.976Z,10.43
2022-10-18T23:58:50.251Z,10.95
